sensor_id;sensor_type;location;lat;lon;timestamp;P1;durP1;ratioP1;P2;durP2;ratioP2
65769;SDS011;52512;47.650;8.578;2023-04-29T00:01:11;7.03;;;4.43;;
65769;SDS011;52512;47.650;8.578;2023-04-29T00:03:36;6.93;;;4.30;;
65769;SDS011;52512;47.650;8.578;2023-04-29T00:06:02;9.13;;;4.90;;
65769;SDS011;52512;47.650;8.578;2023-04-29T00:08:28;6.80;;;5.00;;
65769;SDS011;52512;47.650;8.578;2023-04-29T00:10:53;7.73;;;5.00;;
65769;SDS011;52512;47.650;8.578;2023-04-29T00:13:19;6.80;;;3.70;;
65769;SDS011;52512;47.650;8.578;2023-04-29T00:15:45;8.50;;;5.00;;
65769;SDS011;52512;47.650;8.578;2023-04-29T00:18:11;14.97;;;5.27;;
65769;SDS011;52512;47.650;8.578;2023-04-29T00:20:37;7.47;;;5.00;;
65769;SDS011;52512;47.650;8.578;2023-04-29T00:23:03;7.80;;;5.03;;
65769;SDS011;52512;47.650;8.578;2023-04-29T00:25:29;7.13;;;4.90;;
65769;SDS011;52512;47.650;8.578;2023-04-29T00:27:55;8.63;;;5.40;;
65769;SDS011;52512;47.650;8.578;2023-04-29T00:30:24;10.90;;;5.32;;
65769;SDS011;52512;47.650;8.578;2023-04-29T00:32:49;10.33;;;6.57;;
65769;SDS011;52512;47.650;8.578;2023-04-29T00:35:15;12.70;;;6.47;;
65769;SDS011;52512;47.650;8.578;2023-04-29T00:37:40;6.43;;;3.90;;
65769;SDS011;52512;47.650;8.578;2023-04-29T00:40:06;9.90;;;5.67;;
65769;SDS011;52512;47.650;8.578;2023-04-29T00:42:33;6.10;;;4.53;;
65769;SDS011;52512;47.650;8.578;2023-04-29T00:44:58;9.10;;;5.87;;
65769;SDS011;52512;47.650;8.578;2023-04-29T00:47:24;4.70;;;4.13;;
65769;SDS011;52512;47.650;8.578;2023-04-29T00:49:50;6.47;;;5.57;;
65769;SDS011;52512;47.650;8.578;2023-04-29T00:52:16;5.73;;;4.47;;
65769;SDS011;52512;47.650;8.578;2023-04-29T00:54:43;7.90;;;5.23;;
65769;SDS011;52512;47.650;8.578;2023-04-29T00:57:08;8.83;;;5.47;;
65769;SDS011;52512;47.650;8.578;2023-04-29T00:59:34;13.17;;;6.17;;
65769;SDS011;52512;47.650;8.578;2023-04-29T01:02:01;7.67;;;6.00;;
65769;SDS011;52512;47.650;8.578;2023-04-29T01:04:28;7.30;;;5.40;;
65769;SDS011;52512;47.650;8.578;2023-04-29T01:14:28;10.38;;;6.65;;
65769;SDS011;52512;47.650;8.578;2023-04-29T01:16:58;10.23;;;5.93;;
65769;SDS011;52512;47.650;8.578;2023-04-29T01:22:19;12.55;;;5.72;;
65769;SDS011;52512;47.650;8.578;2023-04-29T01:24:46;12.47;;;6.10;;
65769;SDS011;52512;47.650;8.578;2023-04-29T01:27:28;8.27;;;5.43;;
65769;SDS011;52512;47.650;8.578;2023-04-29T01:35:29;8.53;;;5.23;;
65769;SDS011;52512;47.650;8.578;2023-04-29T01:43:40;15.93;;;7.93;;
65769;SDS011;52512;47.650;8.578;2023-04-29T01:46:10;16.33;;;7.95;;
65769;SDS011;52512;47.650;8.578;2023-04-29T01:48:38;14.23;;;7.20;;
65769;SDS011;52512;47.650;8.578;2023-04-29T01:51:04;15.93;;;8.10;;
65769;SDS011;52512;47.650;8.578;2023-04-29T01:53:31;13.70;;;7.57;;
65769;SDS011;52512;47.650;8.578;2023-04-29T01:55:56;16.27;;;7.13;;
65769;SDS011;52512;47.650;8.578;2023-04-29T01:58:22;16.40;;;8.60;;
65769;SDS011;52512;47.650;8.578;2023-04-29T02:00:48;12.87;;;7.50;;
65769;SDS011;52512;47.650;8.578;2023-04-29T02:03:14;14.87;;;7.60;;
65769;SDS011;52512;47.650;8.578;2023-04-29T02:05:40;15.35;;;8.50;;
65769;SDS011;52512;47.650;8.578;2023-04-29T02:08:06;13.07;;;7.00;;
65769;SDS011;52512;47.650;8.578;2023-04-29T02:10:32;11.00;;;7.23;;
65769;SDS011;52512;47.650;8.578;2023-04-29T02:12:58;17.40;;;7.80;;
65769;SDS011;52512;47.650;8.578;2023-04-29T02:15:27;12.27;;;7.07;;
65769;SDS011;52512;47.650;8.578;2023-04-29T02:17:53;12.68;;;8.10;;
65769;SDS011;52512;47.650;8.578;2023-04-29T02:20:19;14.50;;;5.73;;
65769;SDS011;52512;47.650;8.578;2023-04-29T02:22:45;18.77;;;8.37;;
65769;SDS011;52512;47.650;8.578;2023-04-29T02:25:10;15.00;;;6.60;;
65769;SDS011;52512;47.650;8.578;2023-04-29T02:27:36;16.97;;;6.87;;
65769;SDS011;52512;47.650;8.578;2023-04-29T02:30:02;11.60;;;6.97;;
65769;SDS011;52512;47.650;8.578;2023-04-29T02:32:29;10.90;;;6.63;;
65769;SDS011;52512;47.650;8.578;2023-04-29T02:34:55;16.08;;;7.82;;
65769;SDS011;52512;47.650;8.578;2023-04-29T02:37:21;14.37;;;7.40;;
65769;SDS011;52512;47.650;8.578;2023-04-29T02:39:47;13.43;;;7.33;;
65769;SDS011;52512;47.650;8.578;2023-04-29T02:42:12;18.60;;;7.90;;
65769;SDS011;52512;47.650;8.578;2023-04-29T02:44:38;20.43;;;9.30;;
65769;SDS011;52512;47.650;8.578;2023-04-29T02:47:05;17.58;;;8.55;;
65769;SDS011;52512;47.650;8.578;2023-04-29T02:49:31;15.97;;;6.50;;
65769;SDS011;52512;47.650;8.578;2023-04-29T02:51:56;19.00;;;9.50;;
65769;SDS011;52512;47.650;8.578;2023-04-29T02:54:22;17.53;;;8.03;;
65769;SDS011;52512;47.650;8.578;2023-04-29T02:56:48;15.63;;;7.37;;
65769;SDS011;52512;47.650;8.578;2023-04-29T02:59:14;22.17;;;9.30;;
65769;SDS011;52512;47.650;8.578;2023-04-29T03:01:39;26.93;;;10.50;;
65769;SDS011;52512;47.650;8.578;2023-04-29T03:04:06;18.58;;;7.40;;
65769;SDS011;52512;47.650;8.578;2023-04-29T03:06:31;18.00;;;8.50;;
65769;SDS011;52512;47.650;8.578;2023-04-29T03:08:57;15.53;;;8.70;;
65769;SDS011;52512;47.650;8.578;2023-04-29T03:11:23;23.13;;;11.03;;
65769;SDS011;52512;47.650;8.578;2023-04-29T03:13:49;22.67;;;9.47;;
65769;SDS011;52512;47.650;8.578;2023-04-29T03:16:15;14.40;;;8.00;;
65769;SDS011;52512;47.650;8.578;2023-04-29T03:18:41;23.10;;;9.70;;
65769;SDS011;52512;47.650;8.578;2023-04-29T03:21:07;22.93;;;9.57;;
65769;SDS011;52512;47.650;8.578;2023-04-29T03:23:33;17.33;;;8.73;;
65769;SDS011;52512;47.650;8.578;2023-04-29T03:25:59;20.63;;;10.90;;
65769;SDS011;52512;47.650;8.578;2023-04-29T03:28:25;19.75;;;9.90;;
65769;SDS011;52512;47.650;8.578;2023-04-29T03:30:51;15.63;;;7.60;;
65769;SDS011;52512;47.650;8.578;2023-04-29T03:33:17;26.47;;;10.27;;
65769;SDS011;52512;47.650;8.578;2023-04-29T03:35:42;19.90;;;10.77;;
65769;SDS011;52512;47.650;8.578;2023-04-29T03:38:09;19.50;;;9.47;;
65769;SDS011;52512;47.650;8.578;2023-04-29T03:40:35;23.50;;;10.37;;
65769;SDS011;52512;47.650;8.578;2023-04-29T03:43:01;26.40;;;9.67;;
65769;SDS011;52512;47.650;8.578;2023-04-29T03:45:27;20.60;;;9.53;;
65769;SDS011;52512;47.650;8.578;2023-04-29T03:47:53;19.73;;;9.27;;
65769;SDS011;52512;47.650;8.578;2023-04-29T03:50:19;20.23;;;9.80;;
65769;SDS011;52512;47.650;8.578;2023-04-29T03:52:44;18.30;;;8.77;;
65769;SDS011;52512;47.650;8.578;2023-04-29T03:55:10;17.77;;;7.77;;
65769;SDS011;52512;47.650;8.578;2023-04-29T03:57:36;14.67;;;7.50;;
65769;SDS011;52512;47.650;8.578;2023-04-29T04:00:02;15.27;;;7.70;;
65769;SDS011;52512;47.650;8.578;2023-04-29T04:02:28;22.00;;;8.13;;
65769;SDS011;52512;47.650;8.578;2023-04-29T04:04:54;14.87;;;8.30;;
65769;SDS011;52512;47.650;8.578;2023-04-29T04:07:20;22.93;;;8.87;;
65769;SDS011;52512;47.650;8.578;2023-04-29T04:09:45;16.23;;;8.43;;
65769;SDS011;52512;47.650;8.578;2023-04-29T04:12:11;14.90;;;7.70;;
65769;SDS011;52512;47.650;8.578;2023-04-29T04:14:37;20.60;;;8.87;;
65769;SDS011;52512;47.650;8.578;2023-04-29T04:17:02;19.07;;;7.57;;
65769;SDS011;52512;47.650;8.578;2023-04-29T04:19:29;17.17;;;8.23;;
65769;SDS011;52512;47.650;8.578;2023-04-29T04:21:55;17.20;;;8.38;;
65769;SDS011;52512;47.650;8.578;2023-04-29T04:24:20;10.70;;;6.23;;
65769;SDS011;52512;47.650;8.578;2023-04-29T04:26:47;14.73;;;6.40;;
65769;SDS011;52512;47.650;8.578;2023-04-29T04:29:12;14.00;;;7.70;;
65769;SDS011;52512;47.650;8.578;2023-04-29T04:31:38;18.80;;;7.30;;
65769;SDS011;52512;47.650;8.578;2023-04-29T04:34:04;17.73;;;8.23;;
65769;SDS011;52512;47.650;8.578;2023-04-29T04:36:29;9.60;;;5.60;;
65769;SDS011;52512;47.650;8.578;2023-04-29T04:38:56;18.20;;;7.00;;
65769;SDS011;52512;47.650;8.578;2023-04-29T04:41:22;9.48;;;7.03;;
65769;SDS011;52512;47.650;8.578;2023-04-29T04:43:48;13.07;;;6.30;;
65769;SDS011;52512;47.650;8.578;2023-04-29T04:46:14;9.90;;;6.33;;
65769;SDS011;52512;47.650;8.578;2023-04-29T04:48:40;10.25;;;5.28;;
65769;SDS011;52512;47.650;8.578;2023-04-29T04:51:07;13.35;;;6.30;;
65769;SDS011;52512;47.650;8.578;2023-04-29T04:53:37;11.80;;;6.23;;
65769;SDS011;52512;47.650;8.578;2023-04-29T04:56:03;11.77;;;5.38;;
65769;SDS011;52512;47.650;8.578;2023-04-29T04:58:30;9.98;;;5.35;;
65769;SDS011;52512;47.650;8.578;2023-04-29T05:00:57;12.63;;;7.10;;
65769;SDS011;52512;47.650;8.578;2023-04-29T05:03:26;7.68;;;5.32;;
65769;SDS011;52512;47.650;8.578;2023-04-29T05:05:55;11.30;;;6.75;;
65769;SDS011;52512;47.650;8.578;2023-04-29T05:08:22;8.48;;;5.43;;
65769;SDS011;52512;47.650;8.578;2023-04-29T05:10:48;7.43;;;4.43;;
65769;SDS011;52512;47.650;8.578;2023-04-29T05:13:14;13.27;;;6.60;;
65769;SDS011;52512;47.650;8.578;2023-04-29T05:15:39;8.20;;;5.90;;
65769;SDS011;52512;47.650;8.578;2023-04-29T05:18:06;10.73;;;5.17;;
65769;SDS011;52512;47.650;8.578;2023-04-29T05:20:31;9.33;;;5.13;;
65769;SDS011;52512;47.650;8.578;2023-04-29T05:22:57;11.00;;;6.03;;
65769;SDS011;52512;47.650;8.578;2023-04-29T05:25:23;17.15;;;7.70;;
65769;SDS011;52512;47.650;8.578;2023-04-29T05:27:49;17.77;;;8.40;;
65769;SDS011;52512;47.650;8.578;2023-04-29T05:30:15;19.50;;;10.35;;
65769;SDS011;52512;47.650;8.578;2023-04-29T05:32:42;10.40;;;6.70;;
65769;SDS011;52512;47.650;8.578;2023-04-29T05:35:09;10.10;;;6.70;;
65769;SDS011;52512;47.650;8.578;2023-04-29T05:37:35;9.95;;;5.75;;
65769;SDS011;52512;47.650;8.578;2023-04-29T05:40:01;9.10;;;5.70;;
65769;SDS011;52512;47.650;8.578;2023-04-29T05:42:28;9.02;;;6.57;;
65769;SDS011;52512;47.650;8.578;2023-04-29T05:44:54;8.10;;;5.73;;
65769;SDS011;52512;47.650;8.578;2023-04-29T05:47:19;8.67;;;6.50;;
65769;SDS011;52512;47.650;8.578;2023-04-29T05:49:45;14.53;;;7.50;;
65769;SDS011;52512;47.650;8.578;2023-04-29T05:52:12;11.68;;;7.10;;
65769;SDS011;52512;47.650;8.578;2023-04-29T05:54:38;12.43;;;7.10;;
65769;SDS011;52512;47.650;8.578;2023-04-29T05:57:05;12.00;;;7.25;;
65769;SDS011;52512;47.650;8.578;2023-04-29T05:59:32;21.52;;;7.43;;
65769;SDS011;52512;47.650;8.578;2023-04-29T06:01:58;10.65;;;7.03;;
65769;SDS011;52512;47.650;8.578;2023-04-29T06:04:25;11.45;;;6.57;;
65769;SDS011;52512;47.650;8.578;2023-04-29T06:06:51;13.20;;;6.10;;
65769;SDS011;52512;47.650;8.578;2023-04-29T06:09:18;14.87;;;8.23;;
65769;SDS011;52512;47.650;8.578;2023-04-29T06:11:44;13.48;;;7.65;;
65769;SDS011;52512;47.650;8.578;2023-04-29T06:14:11;13.68;;;7.95;;
65769;SDS011;52512;47.650;8.578;2023-04-29T06:16:37;14.05;;;7.43;;
65769;SDS011;52512;47.650;8.578;2023-04-29T06:19:03;14.60;;;7.47;;
65769;SDS011;52512;47.650;8.578;2023-04-29T06:21:29;10.27;;;6.77;;
65769;SDS011;52512;47.650;8.578;2023-04-29T06:23:57;15.57;;;6.40;;
65769;SDS011;52512;47.650;8.578;2023-04-29T06:26:23;11.60;;;6.10;;
65769;SDS011;52512;47.650;8.578;2023-04-29T06:28:49;9.00;;;5.95;;
65769;SDS011;52512;47.650;8.578;2023-04-29T06:31:15;9.30;;;5.40;;
65769;SDS011;52512;47.650;8.578;2023-04-29T06:33:41;5.57;;;4.30;;
65769;SDS011;52512;47.650;8.578;2023-04-29T06:36:07;10.03;;;4.73;;
65769;SDS011;52512;47.650;8.578;2023-04-29T06:38:32;6.07;;;4.50;;
65769;SDS011;52512;47.650;8.578;2023-04-29T06:40:58;6.57;;;3.10;;
65769;SDS011;52512;47.650;8.578;2023-04-29T06:43:27;10.83;;;3.97;;
65769;SDS011;52512;47.650;8.578;2023-04-29T06:45:53;13.23;;;4.00;;
65769;SDS011;52512;47.650;8.578;2023-04-29T06:48:18;4.07;;;3.57;;
65769;SDS011;52512;47.650;8.578;2023-04-29T06:53:16;8.20;;;3.13;;
65769;SDS011;52512;47.650;8.578;2023-04-29T06:55:42;3.23;;;2.70;;
65769;SDS011;52512;47.650;8.578;2023-04-29T06:58:10;4.83;;;3.10;;
65769;SDS011;52512;47.650;8.578;2023-04-29T07:00:38;5.20;;;3.30;;
65769;SDS011;52512;47.650;8.578;2023-04-29T07:03:04;4.47;;;3.07;;
65769;SDS011;52512;47.650;8.578;2023-04-29T07:05:30;3.83;;;2.80;;
65769;SDS011;52512;47.650;8.578;2023-04-29T07:07:56;18.97;;;3.20;;
65769;SDS011;52512;47.650;8.578;2023-04-29T07:10:21;5.50;;;3.10;;
65769;SDS011;52512;47.650;8.578;2023-04-29T07:12:47;3.00;;;2.80;;
65769;SDS011;52512;47.650;8.578;2023-04-29T07:15:13;6.60;;;3.60;;
65769;SDS011;52512;47.650;8.578;2023-04-29T07:17:38;5.30;;;3.60;;
65769;SDS011;52512;47.650;8.578;2023-04-29T07:20:04;3.10;;;2.80;;
65769;SDS011;52512;47.650;8.578;2023-04-29T07:22:30;4.80;;;2.80;;
65769;SDS011;52512;47.650;8.578;2023-04-29T07:24:56;3.43;;;3.13;;
65769;SDS011;52512;47.650;8.578;2023-04-29T07:27:22;3.93;;;2.97;;
65769;SDS011;52512;47.650;8.578;2023-04-29T07:29:48;2.90;;;2.43;;
65769;SDS011;52512;47.650;8.578;2023-04-29T07:32:15;6.97;;;3.37;;
65769;SDS011;52512;47.650;8.578;2023-04-29T07:34:41;4.00;;;2.90;;
65769;SDS011;52512;47.650;8.578;2023-04-29T07:37:07;5.83;;;2.70;;
65769;SDS011;52512;47.650;8.578;2023-04-29T07:39:32;3.10;;;2.80;;
65769;SDS011;52512;47.650;8.578;2023-04-29T07:41:59;7.93;;;2.97;;
65769;SDS011;52512;47.650;8.578;2023-04-29T07:44:27;6.23;;;3.17;;
65769;SDS011;52512;47.650;8.578;2023-04-29T07:46:53;3.63;;;2.90;;
65769;SDS011;52512;47.650;8.578;2023-04-29T07:49:18;3.53;;;3.10;;
65769;SDS011;52512;47.650;8.578;2023-04-29T07:51:44;5.20;;;3.07;;
65769;SDS011;52512;47.650;8.578;2023-04-29T07:54:10;2.73;;;2.53;;
65769;SDS011;52512;47.650;8.578;2023-04-29T07:56:36;4.00;;;2.57;;
65769;SDS011;52512;47.650;8.578;2023-04-29T07:59:01;3.03;;;2.47;;
65769;SDS011;52512;47.650;8.578;2023-04-29T08:01:27;2.87;;;2.67;;
65769;SDS011;52512;47.650;8.578;2023-04-29T08:03:53;3.17;;;2.90;;
65769;SDS011;52512;47.650;8.578;2023-04-29T08:06:19;5.83;;;3.57;;
65769;SDS011;52512;47.650;8.578;2023-04-29T08:08:46;7.63;;;3.30;;
65769;SDS011;52512;47.650;8.578;2023-04-29T08:11:16;5.70;;;3.23;;
65769;SDS011;52512;47.650;8.578;2023-04-29T08:13:45;3.17;;;2.87;;
65769;SDS011;52512;47.650;8.578;2023-04-29T08:16:11;5.70;;;2.17;;
65769;SDS011;52512;47.650;8.578;2023-04-29T08:18:37;3.13;;;2.83;;
65769;SDS011;52512;47.650;8.578;2023-04-29T08:21:03;2.40;;;2.20;;
65769;SDS011;52512;47.650;8.578;2023-04-29T08:23:29;3.10;;;2.90;;
65769;SDS011;52512;47.650;8.578;2023-04-29T08:25:56;5.37;;;3.30;;
65769;SDS011;52512;47.650;8.578;2023-04-29T08:28:22;3.90;;;2.30;;
65769;SDS011;52512;47.650;8.578;2023-04-29T08:30:47;3.90;;;2.30;;
65769;SDS011;52512;47.650;8.578;2023-04-29T08:33:13;3.37;;;2.43;;
65769;SDS011;52512;47.650;8.578;2023-04-29T08:35:39;6.53;;;2.80;;
65769;SDS011;52512;47.650;8.578;2023-04-29T08:38:06;2.00;;;1.87;;
65769;SDS011;52512;47.650;8.578;2023-04-29T08:40:40;3.33;;;1.80;;
65769;SDS011;52512;47.650;8.578;2023-04-29T08:43:07;2.60;;;1.90;;
65769;SDS011;52512;47.650;8.578;2023-04-29T08:45:34;2.10;;;1.90;;
65769;SDS011;52512;47.650;8.578;2023-04-29T08:48:03;1.90;;;1.80;;
65769;SDS011;52512;47.650;8.578;2023-04-29T08:50:36;3.90;;;2.10;;
65769;SDS011;52512;47.650;8.578;2023-04-29T08:53:04;2.93;;;1.70;;
65769;SDS011;52512;47.650;8.578;2023-04-29T08:55:33;2.20;;;1.97;;
65769;SDS011;52512;47.650;8.578;2023-04-29T08:58:01;2.70;;;1.90;;
65769;SDS011;52512;47.650;8.578;2023-04-29T09:00:27;1.60;;;1.50;;
65769;SDS011;52512;47.650;8.578;2023-04-29T09:02:56;2.00;;;1.90;;
65769;SDS011;52512;47.650;8.578;2023-04-29T09:05:25;2.83;;;1.70;;
65769;SDS011;52512;47.650;8.578;2023-04-29T09:07:52;1.73;;;1.63;;
65769;SDS011;52512;47.650;8.578;2023-04-29T09:10:20;2.60;;;2.40;;
65769;SDS011;52512;47.650;8.578;2023-04-29T09:12:46;2.17;;;2.07;;
65769;SDS011;52512;47.650;8.578;2023-04-29T09:15:12;2.73;;;2.10;;
65769;SDS011;52512;47.650;8.578;2023-04-29T09:17:38;1.90;;;1.80;;
65769;SDS011;52512;47.650;8.578;2023-04-29T09:22:46;1.93;;;1.80;;
65769;SDS011;52512;47.650;8.578;2023-04-29T09:25:16;4.83;;;2.00;;
65769;SDS011;52512;47.650;8.578;2023-04-29T09:27:41;1.60;;;1.50;;
65769;SDS011;52512;47.650;8.578;2023-04-29T09:30:08;1.63;;;1.53;;
65769;SDS011;52512;47.650;8.578;2023-04-29T09:32:41;1.60;;;1.50;;
65769;SDS011;52512;47.650;8.578;2023-04-29T09:35:24;3.30;;;1.90;;
65769;SDS011;52512;47.650;8.578;2023-04-29T09:38:06;2.80;;;1.67;;
65769;SDS011;52512;47.650;8.578;2023-04-29T09:40:41;9.13;;;2.20;;
65769;SDS011;52512;47.650;8.578;2023-04-29T09:43:12;1.67;;;1.57;;
65769;SDS011;52512;47.650;8.578;2023-04-29T09:46:23;2.27;;;1.60;;
65769;SDS011;52512;47.650;8.578;2023-04-29T09:49:37;1.77;;;1.67;;
65769;SDS011;52512;47.650;8.578;2023-04-29T10:23:27;1.87;;;1.30;;
65769;SDS011;52512;47.650;8.578;2023-04-29T10:26:20;3.23;;;1.30;;
65769;SDS011;52512;47.650;8.578;2023-04-29T10:28:59;0.87;;;0.87;;
65769;SDS011;52512;47.650;8.578;2023-04-29T10:31:29;0.83;;;0.83;;
65769;SDS011;52512;47.650;8.578;2023-04-29T10:33:57;3.13;;;0.77;;
65769;SDS011;52512;47.650;8.578;2023-04-29T10:36:32;1.03;;;1.03;;
65769;SDS011;52512;47.650;8.578;2023-04-29T10:39:02;4.40;;;1.00;;
65769;SDS011;52512;47.650;8.578;2023-04-29T10:41:33;1.20;;;1.10;;
65769;SDS011;52512;47.650;8.578;2023-04-29T10:44:27;1.50;;;1.00;;
65769;SDS011;52512;47.650;8.578;2023-04-29T10:49:54;1.23;;;1.13;;
65769;SDS011;52512;47.650;8.578;2023-04-29T10:52:28;5.27;;;1.20;;
65769;SDS011;52512;47.650;8.578;2023-04-29T10:55:03;2.20;;;1.00;;
65769;SDS011;52512;47.650;8.578;2023-04-29T10:57:29;1.20;;;1.20;;
65769;SDS011;52512;47.650;8.578;2023-04-29T10:59:54;1.40;;;1.00;;
65769;SDS011;52512;47.650;8.578;2023-04-29T11:02:20;0.73;;;0.73;;
65769;SDS011;52512;47.650;8.578;2023-04-29T11:05:09;1.10;;;1.00;;
65769;SDS011;52512;47.650;8.578;2023-04-29T11:07:44;3.80;;;1.27;;
65769;SDS011;52512;47.650;8.578;2023-04-29T11:10:10;6.73;;;1.10;;
65769;SDS011;52512;47.650;8.578;2023-04-29T11:12:37;1.20;;;1.10;;
65769;SDS011;52512;47.650;8.578;2023-04-29T11:15:03;0.90;;;0.90;;
65769;SDS011;52512;47.650;8.578;2023-04-29T11:17:35;0.80;;;0.80;;
65769;SDS011;52512;47.650;8.578;2023-04-29T11:20:08;1.97;;;1.20;;
65769;SDS011;52512;47.650;8.578;2023-04-29T11:25:50;0.80;;;0.80;;
65769;SDS011;52512;47.650;8.578;2023-04-29T11:28:16;2.70;;;1.07;;
65769;SDS011;52512;47.650;8.578;2023-04-29T11:30:49;0.80;;;0.80;;
65769;SDS011;52512;47.650;8.578;2023-04-29T11:33:22;3.20;;;1.30;;
65769;SDS011;52512;47.650;8.578;2023-04-29T11:36:17;1.07;;;0.80;;
65769;SDS011;52512;47.650;8.578;2023-04-29T11:39:02;0.80;;;0.80;;
65769;SDS011;52512;47.650;8.578;2023-04-29T11:41:43;5.13;;;1.13;;
65769;SDS011;52512;47.650;8.578;2023-04-29T11:44:09;0.97;;;0.80;;
65769;SDS011;52512;47.650;8.578;2023-04-29T11:46:46;0.97;;;0.80;;
65769;SDS011;52512;47.650;8.578;2023-04-29T11:49:15;0.90;;;0.90;;
65769;SDS011;52512;47.650;8.578;2023-04-29T11:52:04;0.70;;;0.70;;
65769;SDS011;52512;47.650;8.578;2023-04-29T11:54:42;3.53;;;1.37;;
65769;SDS011;52512;47.650;8.578;2023-04-29T12:00:37;2.83;;;0.90;;
65769;SDS011;52512;47.650;8.578;2023-04-29T12:03:22;7.40;;;0.90;;
65769;SDS011;52512;47.650;8.578;2023-04-29T12:05:56;2.50;;;0.80;;
65769;SDS011;52512;47.650;8.578;2023-04-29T12:08:23;0.70;;;0.70;;
65769;SDS011;52512;47.650;8.578;2023-04-29T12:11:05;0.70;;;0.70;;
65769;SDS011;52512;47.650;8.578;2023-04-29T12:13:32;2.20;;;0.80;;
65769;SDS011;52512;47.650;8.578;2023-04-29T12:16:00;1.43;;;1.20;;
65769;SDS011;52512;47.650;8.578;2023-04-29T12:18:27;1.03;;;0.90;;
65769;SDS011;52512;47.650;8.578;2023-04-29T12:20:55;0.80;;;0.80;;
65769;SDS011;52512;47.650;8.578;2023-04-29T12:23:23;1.67;;;0.90;;
65769;SDS011;52512;47.650;8.578;2023-04-29T12:25:57;0.97;;;0.97;;
65769;SDS011;52512;47.650;8.578;2023-04-29T12:28:24;0.93;;;0.80;;
65769;SDS011;52512;47.650;8.578;2023-04-29T12:30:59;1.80;;;1.40;;
65769;SDS011;52512;47.650;8.578;2023-04-29T12:34:05;1.47;;;1.00;;
65769;SDS011;52512;47.650;8.578;2023-04-29T12:40:21;0.80;;;0.80;;
65769;SDS011;52512;47.650;8.578;2023-04-29T12:46:50;9.30;;;1.00;;
65769;SDS011;52512;47.650;8.578;2023-04-29T12:49:50;0.80;;;0.80;;
65769;SDS011;52512;47.650;8.578;2023-04-29T16:57:20;15.63;;;9.30;;
65769;SDS011;52512;47.650;8.578;2023-04-29T16:59:55;15.97;;;9.80;;
65769;SDS011;52512;47.650;8.578;2023-04-29T17:02:21;6.30;;;4.50;;
65769;SDS011;52512;47.650;8.578;2023-04-29T17:04:50;10.83;;;6.23;;
65769;SDS011;52512;47.650;8.578;2023-04-29T17:07:22;6.77;;;4.40;;
65769;SDS011;52512;47.650;8.578;2023-04-29T17:10:06;3.30;;;3.00;;
65769;SDS011;52512;47.650;8.578;2023-04-29T17:12:36;4.70;;;3.50;;
65769;SDS011;52512;47.650;8.578;2023-04-29T17:15:02;2.87;;;2.63;;
65769;SDS011;52512;47.650;8.578;2023-04-29T17:17:28;3.20;;;2.67;;
65769;SDS011;52512;47.650;8.578;2023-04-29T17:19:57;7.70;;;3.27;;
65769;SDS011;52512;47.650;8.578;2023-04-29T17:22:23;1.83;;;1.70;;
65769;SDS011;52512;47.650;8.578;2023-04-29T17:24:59;1.87;;;1.77;;
65769;SDS011;52512;47.650;8.578;2023-04-29T17:27:25;8.00;;;2.60;;
65769;SDS011;52512;47.650;8.578;2023-04-29T17:29:53;2.40;;;2.00;;
65769;SDS011;52512;47.650;8.578;2023-04-29T17:32:34;1.73;;;1.63;;
65769;SDS011;52512;47.650;8.578;2023-04-29T17:35:07;1.93;;;1.47;;
65769;SDS011;52512;47.650;8.578;2023-04-29T17:37:36;3.77;;;2.10;;
65769;SDS011;52512;47.650;8.578;2023-04-29T17:40:28;2.07;;;1.87;;
65769;SDS011;52512;47.650;8.578;2023-04-29T17:42:57;2.13;;;1.90;;
65769;SDS011;52512;47.650;8.578;2023-04-29T17:45:23;1.53;;;1.43;;
65769;SDS011;52512;47.650;8.578;2023-04-29T17:48:04;2.90;;;2.60;;
65769;SDS011;52512;47.650;8.578;2023-04-29T17:50:38;5.23;;;1.60;;
65769;SDS011;52512;47.650;8.578;2023-04-29T17:53:04;2.00;;;1.90;;
65769;SDS011;52512;47.650;8.578;2023-04-29T17:55:30;2.90;;;1.67;;
65769;SDS011;52512;47.650;8.578;2023-04-29T17:57:56;2.80;;;2.13;;
65769;SDS011;52512;47.650;8.578;2023-04-29T18:00:21;2.03;;;1.83;;
65769;SDS011;52512;47.650;8.578;2023-04-29T18:02:49;3.60;;;2.33;;
65769;SDS011;52512;47.650;8.578;2023-04-29T18:05:31;1.70;;;1.60;;
65769;SDS011;52512;47.650;8.578;2023-04-29T18:07:57;3.83;;;2.30;;
65769;SDS011;52512;47.650;8.578;2023-04-29T18:10:22;2.70;;;1.90;;
65769;SDS011;52512;47.650;8.578;2023-04-29T18:12:58;3.00;;;2.17;;
65769;SDS011;52512;47.650;8.578;2023-04-29T18:15:24;3.50;;;2.50;;
65769;SDS011;52512;47.650;8.578;2023-04-29T18:17:55;7.93;;;2.43;;
65769;SDS011;52512;47.650;8.578;2023-04-29T18:20:25;1.70;;;1.63;;
65769;SDS011;52512;47.650;8.578;2023-04-29T18:22:51;2.80;;;2.00;;
65769;SDS011;52512;47.650;8.578;2023-04-29T18:25:17;4.87;;;2.00;;
65769;SDS011;52512;47.650;8.578;2023-04-29T18:27:43;5.03;;;2.17;;
65769;SDS011;52512;47.650;8.578;2023-04-29T18:30:09;2.20;;;2.10;;
65769;SDS011;52512;47.650;8.578;2023-04-29T18:32:36;6.13;;;1.90;;
65769;SDS011;52512;47.650;8.578;2023-04-29T18:35:04;2.67;;;2.10;;
65769;SDS011;52512;47.650;8.578;2023-04-29T18:37:33;2.27;;;2.13;;
65769;SDS011;52512;47.650;8.578;2023-04-29T18:39:59;4.63;;;1.93;;
65769;SDS011;52512;47.650;8.578;2023-04-29T18:42:27;3.70;;;2.20;;
65769;SDS011;52512;47.650;8.578;2023-04-29T18:44:53;1.80;;;1.70;;
65769;SDS011;52512;47.650;8.578;2023-04-29T18:47:19;1.80;;;1.70;;
65769;SDS011;52512;47.650;8.578;2023-04-29T18:49:45;10.53;;;2.30;;
65769;SDS011;52512;47.650;8.578;2023-04-29T18:52:22;3.93;;;2.00;;
65769;SDS011;52512;47.650;8.578;2023-04-29T18:54:59;2.30;;;2.20;;
65769;SDS011;52512;47.650;8.578;2023-04-29T18:57:28;4.20;;;2.37;;
65769;SDS011;52512;47.650;8.578;2023-04-29T18:59:54;4.27;;;3.27;;
65769;SDS011;52512;47.650;8.578;2023-04-29T19:02:30;14.63;;;6.13;;
65769;SDS011;52512;47.650;8.578;2023-04-29T19:04:56;7.13;;;4.70;;
65769;SDS011;52512;47.650;8.578;2023-04-29T19:07:25;5.60;;;4.10;;
65769;SDS011;52512;47.650;8.578;2023-04-29T19:12:33;2.73;;;2.53;;
65769;SDS011;52512;47.650;8.578;2023-04-29T19:15:08;4.63;;;3.20;;
65769;SDS011;52512;47.650;8.578;2023-04-29T19:17:37;4.40;;;3.20;;
65769;SDS011;52512;47.650;8.578;2023-04-29T19:20:13;2.83;;;2.20;;
65769;SDS011;52512;47.650;8.578;2023-04-29T19:22:51;1.77;;;1.67;;
65769;SDS011;52512;47.650;8.578;2023-04-29T19:25:31;4.30;;;2.00;;
65769;SDS011;52512;47.650;8.578;2023-04-29T19:28:00;2.30;;;2.10;;
65769;SDS011;52512;47.650;8.578;2023-04-29T19:30:26;3.43;;;2.07;;
65769;SDS011;52512;47.650;8.578;2023-04-29T19:32:57;2.47;;;1.90;;
65769;SDS011;52512;47.650;8.578;2023-04-29T19:35:51;1.80;;;1.70;;
65769;SDS011;52512;47.650;8.578;2023-04-29T19:41:11;1.70;;;1.60;;
65769;SDS011;52512;47.650;8.578;2023-04-29T19:43:47;7.07;;;2.83;;
65769;SDS011;52512;47.650;8.578;2023-04-29T19:46:16;3.57;;;2.40;;
65769;SDS011;52512;47.650;8.578;2023-04-29T19:48:44;3.90;;;2.40;;
65769;SDS011;52512;47.650;8.578;2023-04-29T19:51:16;2.33;;;2.07;;
65769;SDS011;52512;47.650;8.578;2023-04-29T19:53:42;3.57;;;2.23;;
65769;SDS011;52512;47.650;8.578;2023-04-29T19:56:08;3.83;;;3.53;;
65769;SDS011;52512;47.650;8.578;2023-04-29T19:58:37;2.90;;;2.60;;
65769;SDS011;52512;47.650;8.578;2023-04-29T20:01:08;3.57;;;2.47;;
65769;SDS011;52512;47.650;8.578;2023-04-29T20:03:36;3.83;;;2.57;;
65769;SDS011;52512;47.650;8.578;2023-04-29T20:06:10;4.30;;;2.10;;
65769;SDS011;52512;47.650;8.578;2023-04-29T20:08:36;6.30;;;2.40;;
65769;SDS011;52512;47.650;8.578;2023-04-29T20:11:08;2.20;;;2.00;;
65769;SDS011;52512;47.650;8.578;2023-04-29T20:13:37;2.90;;;2.10;;
65769;SDS011;52512;47.650;8.578;2023-04-29T20:16:10;2.40;;;2.20;;
65769;SDS011;52512;47.650;8.578;2023-04-29T20:18:36;2.70;;;2.50;;